Time;durP1;ratioP1;P1;durP2;ratioP2;P2;SDS_P1;SDS_P2;PMS_P1;PMS_P2;Temp;Humidity;BMP_temperature;BMP_pressure;BME280_temperature;BME280_humidity;BME280_pressure;Samples;Min_cycle;Max_cycle;Signal;HPM_P1;HPM_P2
2021/12/01 00:02:16;;;;;;;28.50;3.87;;;11.00;99.90;;;;;;4993127;28;20207;-57
2021/12/01 00:04:42;;;;;;;23.70;2.70;;;11.00;99.90;;;;;;4993217;28;20642;-58
2021/12/01 00:07:09;;;;;;;15.83;2.33;;;11.00;99.90;;;;;;4993070;28;20191;-58
2021/12/01 00:09:35;;;;;;;21.77;3.07;;;10.90;99.90;;;;;;4993077;28;20602;-58
2021/12/01 00:12:01;;;;;;;13.70;2.50;;;10.90;99.90;;;;;;4993018;28;20705;-57
2021/12/01 00:14:26;;;;;;;19.83;3.10;;;10.90;99.90;;;;;;4993245;28;20191;-60
2021/12/01 00:16:53;;;;;;;16.80;2.80;;;10.90;99.90;;;;;;4993085;28;20638;-59
2021/12/01 00:19:19;;;;;;;16.20;2.50;;;10.90;99.90;;;;;;4992949;28;20183;-59
2021/12/01 00:21:45;;;;;;;13.03;2.17;;;11.00;99.90;;;;;;4992961;28;20175;-57
2021/12/01 00:24:10;;;;;;;22.77;2.93;;;10.90;99.90;;;;;;4992805;28;20259;-57
2021/12/01 00:26:36;;;;;;;18.07;2.70;;;10.90;99.90;;;;;;4992788;28;20171;-60
2021/12/01 00:29:03;;;;;;;18.73;2.57;;;10.90;99.90;;;;;;4992870;28;20175;-57
2021/12/01 00:31:29;;;;;;;15.53;2.40;;;11.00;99.90;;;;;;4992644;28;20265;-57
2021/12/01 00:33:56;;;;;;;18.60;2.50;;;11.00;99.90;;;;;;4992703;28;20582;-58
2021/12/01 00:36:21;;;;;;;15.20;2.30;;;11.00;99.90;;;;;;4992554;28;20172;-58
2021/12/01 00:38:48;;;;;;;21.97;2.80;;;11.00;99.90;;;;;;4992611;28;20175;-58
2021/12/01 00:41:15;;;;;;;15.30;2.27;;;11.00;99.90;;;;;;4992471;28;20206;-57
2021/12/01 00:43:41;;;;;;;19.67;3.10;;;11.00;99.90;;;;;;4992456;28;20175;-58
2021/12/01 00:46:12;;;;;;;20.47;2.67;;;11.00;99.90;;;;;;4992534;28;20190;-58
2021/12/01 00:48:39;;;;;;;18.17;2.77;;;11.00;99.90;;;;;;4992441;28;20241;-58
2021/12/01 00:51:05;;;;;;;18.33;2.63;;;11.00;99.90;;;;;;4992361;28;20241;-58
2021/12/01 00:53:31;;;;;;;19.80;2.23;;;11.00;99.90;;;;;;4992363;28;20622;-59
2021/12/01 00:55:57;;;;;;;15.43;2.47;;;11.00;99.90;;;;;;4992260;28;20182;-59
2021/12/01 00:58:22;;;;;;;20.40;2.57;;;11.00;99.90;;;;;;4992220;28;20207;-59
2021/12/01 01:00:49;;;;;;;18.90;2.87;;;10.90;99.90;;;;;;4992381;28;20257;-57
2021/12/01 01:03:16;;;;;;;18.57;3.33;;;10.90;99.90;;;;;;4992199;28;20694;-60
2021/12/01 01:05:42;;;;;;;21.87;3.20;;;10.90;99.90;;;;;;4992146;28;20186;-60
2021/12/01 01:08:09;;;;;;;30.67;3.50;;;10.90;99.90;;;;;;4992464;28;20578;-59
2021/12/01 01:19:02;;;;;;;20.47;2.73;;;10.80;99.90;;;;;;4989696;28;20693;-59
2021/12/01 01:21:34;;;;;;;19.17;3.27;;;10.80;99.90;;;;;;4991602;28;20286;-60
2021/12/01 01:24:01;;;;;;;20.33;2.40;;;10.80;99.90;;;;;;4991916;28;20179;-59
2021/12/01 01:26:28;;;;;;;22.30;2.80;;;10.80;99.90;;;;;;4991953;28;20203;-59
2021/12/01 01:28:54;;;;;;;15.53;2.13;;;10.70;99.90;;;;;;4991622;28;20178;-57
2021/12/01 01:31:20;;;;;;;26.00;3.33;;;10.80;99.90;;;;;;4991776;28;20215;-60
2021/12/01 01:33:47;;;;;;;15.60;2.67;;;10.70;99.90;;;;;;4991854;28;20199;-57
2021/12/01 01:36:14;;;;;;;19.13;2.10;;;10.70;99.90;;;;;;4991713;28;20226;-59
2021/12/01 01:38:40;;;;;;;23.50;2.50;;;10.70;99.90;;;;;;4991871;28;20167;-59
2021/12/01 01:41:08;;;;;;;21.20;3.03;;;10.60;99.90;;;;;;4991582;28;20175;-57
2021/12/01 01:43:35;;;;;;;10.60;2.33;;;10.60;99.90;;;;;;4991786;28;20182;-57
2021/12/01 01:46:01;;;;;;;14.87;2.07;;;10.60;99.90;;;;;;4991535;28;20634;-57
2021/12/01 01:48:33;;;;;;;14.67;2.37;;;10.60;99.90;;;;;;4991487;28;20233;-57
2021/12/01 01:51:02;;;;;;;12.97;2.17;;;10.60;99.90;;;;;;4991497;28;20215;-57
2021/12/01 01:53:30;;;;;;;10.73;2.03;;;10.60;99.90;;;;;;4991393;28;20532;-57
2021/12/01 01:55:59;;;;;;;16.50;2.30;;;10.70;99.90;;;;;;4991272;28;20730;-58
2021/12/01 01:58:27;;;;;;;14.30;2.63;;;10.60;99.90;;;;;;4991395;28;20182;-57
2021/12/01 02:03:31;;;;;;;11.50;1.90;;;10.70;99.90;;;;;;4991230;28;20251;-57
2021/12/01 02:05:57;;;;;;;12.30;2.07;;;10.70;99.90;;;;;;4991545;28;20211;-57
2021/12/01 02:08:30;;;;;;;13.40;2.13;;;10.70;99.90;;;;;;4994274;28;20661;-57
2021/12/01 02:10:58;;;;;;;11.90;2.47;;;10.70;99.90;;;;;;4995322;28;20265;-57
2021/12/01 02:13:25;;;;;;;13.50;2.00;;;10.70;99.90;;;;;;4995268;28;20175;-58
2021/12/01 02:15:52;;;;;;;14.37;2.10;;;10.80;99.90;;;;;;4995230;28;20278;-58
2021/12/01 02:18:19;;;;;;;14.00;2.10;;;10.80;99.90;;;;;;4995350;28;20744;-57
2021/12/01 02:21:12;;;;;;;13.07;2.20;;;10.80;99.90;;;;;;4995103;28;20172;-57
2021/12/01 02:23:41;;;;;;;9.17;2.00;;;10.70;99.90;;;;;;4995695;28;20183;-57
2021/12/01 02:26:08;;;;;;;10.27;2.67;;;10.70;99.90;;;;;;4995101;28;20159;-57
2021/12/01 02:28:36;;;;;;;9.77;2.10;;;10.60;99.90;;;;;;4994825;28;20186;-57
2021/12/01 02:31:02;;;;;;;7.80;2.20;;;10.50;99.90;;;;;;4994795;28;20218;-57
2021/12/01 02:33:29;;;;;;;14.93;2.73;;;10.50;99.90;;;;;;4994924;28;20601;-58
2021/12/01 02:35:55;;;;;;;11.03;2.13;;;10.50;99.90;;;;;;4994950;28;20217;-57
2021/12/01 02:38:21;;;;;;;13.37;2.13;;;10.40;99.90;;;;;;4994987;28;20175;-59
2021/12/01 02:40:48;;;;;;;8.73;2.00;;;10.40;99.90;;;;;;4994851;28;20172;-59
2021/12/01 02:43:14;;;;;;;6.63;1.67;;;10.40;99.90;;;;;;4994875;28;20167;-60
2021/12/01 02:45:40;;;;;;;8.87;1.80;;;10.40;99.90;;;;;;4994667;28;20171;-58
2021/12/01 02:48:12;;;;;;;9.93;1.53;;;10.30;99.90;;;;;;4994693;28;20259;-58
2021/12/01 02:50:40;;;;;;;10.30;1.47;;;10.30;99.90;;;;;;4994856;28;20369;-58
2021/12/01 02:53:06;;;;;;;5.10;1.20;;;10.30;99.90;;;;;;4994613;28;20170;-58
2021/12/01 02:55:32;;;;;;;12.73;1.27;;;10.30;99.90;;;;;;4994517;28;20494;-58
2021/12/01 02:57:59;;;;;;;7.50;1.23;;;10.30;99.90;;;;;;4994518;28;20233;-58
2021/12/01 03:00:26;;;;;;;7.63;0.90;;;10.30;99.90;;;;;;4993165;28;20222;-58
2021/12/01 03:02:53;;;;;;;3.07;0.80;;;10.30;99.90;;;;;;4994266;28;20217;-58
2021/12/01 03:05:20;;;;;;;14.53;0.93;;;10.30;99.90;;;;;;4994467;28;20172;-58
2021/12/01 03:07:47;;;;;;;7.63;0.97;;;10.30;99.90;;;;;;4994346;28;20174;-58
2021/12/01 03:10:13;;;;;;;4.03;0.63;;;10.40;99.90;;;;;;4994059;28;20211;-57
2021/12/01 03:12:40;;;;;;;4.03;0.83;;;10.40;99.90;;;;;;4994191;28;20210;-57
2021/12/01 03:15:09;;;;;;;1.77;0.70;;;10.40;99.90;;;;;;4994080;28;20199;-57
2021/12/01 03:17:35;;;;;;;1.37;0.40;;;10.40;99.90;;;;;;4994213;28;20596;-57
2021/12/01 03:20:02;;;;;;;2.17;0.50;;;10.40;99.90;;;;;;4992807;28;20174;-58
2021/12/01 03:22:28;;;;;;;6.60;0.70;;;10.40;99.90;;;;;;4994114;28;20590;-57
2021/12/01 03:24:54;;;;;;;3.93;0.63;;;10.40;99.90;;;;;;4994002;28;20255;-57
2021/12/01 03:27:21;;;;;;;2.97;0.50;;;10.40;99.90;;;;;;4993844;28;20171;-57
2021/12/01 03:29:49;;;;;;;3.20;0.40;;;10.40;99.90;;;;;;4993801;28;20178;-58
2021/12/01 03:32:16;;;;;;;4.57;0.50;;;10.30;99.90;;;;;;4993748;28;20257;-57
2021/12/01 03:34:43;;;;;;;2.73;0.50;;;10.30;99.90;;;;;;4993884;28;20167;-57
2021/12/01 03:37:10;;;;;;;4.07;0.53;;;10.30;99.90;;;;;;4993598;28;20642;-58
2021/12/01 03:39:37;;;;;;;2.93;0.57;;;10.30;99.90;;;;;;4993851;28;20167;-57
2021/12/01 03:42:04;;;;;;;0.60;0.30;;;10.20;99.90;;;;;;4993609;28;20183;-57
2021/12/01 03:44:32;;;;;;;2.37;0.43;;;10.10;99.90;;;;;;4993645;28;20179;-57
2021/12/01 03:46:58;;;;;;;4.47;0.67;;;10.00;99.90;;;;;;4993607;28;20175;-57
2021/12/01 03:49:24;;;;;;;3.27;0.40;;;10.00;99.90;;;;;;4993489;28;20172;-59
2021/12/01 03:51:50;;;;;;;4.13;0.60;;;9.90;99.90;;;;;;5008342;28;20593;-57
2021/12/01 03:54:16;;;;;;;1.97;0.60;;;9.80;99.90;;;;;;4993464;28;20179;-57
2021/12/01 03:56:41;;;;;;;4.27;0.50;;;9.80;99.90;;;;;;4993423;28;20693;-61
2021/12/01 03:59:08;;;;;;;4.53;0.80;;;9.80;99.90;;;;;;4993424;28;20180;-57
2021/12/01 04:01:33;;;;;;;4.87;0.40;;;9.80;99.90;;;;;;4993441;28;20184;-57
2021/12/01 04:03:59;;;;;;;2.20;0.33;;;9.80;99.90;;;;;;4993035;28;20940;-58
2021/12/01 04:06:28;;;;;;;2.27;0.50;;;9.80;99.90;;;;;;4993285;28;20698;-57
2021/12/01 04:08:56;;;;;;;4.90;0.70;;;9.80;99.90;;;;;;4993171;28;20217;-57
2021/12/01 04:11:22;;;;;;;4.33;0.70;;;9.80;99.90;;;;;;4993098;28;20207;-57
2021/12/01 04:13:48;;;;;;;3.17;0.77;;;9.70;99.90;;;;;;4993203;28;20517;-58
2021/12/01 04:16:14;;;;;;;7.77;1.00;;;9.80;99.90;;;;;;4993252;28;20191;-58
2021/12/01 04:18:40;;;;;;;8.07;0.80;;;9.80;99.90;;;;;;4992970;28;20661;-57
2021/12/01 04:21:06;;;;;;;9.10;0.73;;;9.80;99.90;;;;;;4993028;28;20191;-57
2021/12/01 04:23:34;;;;;;;5.13;0.80;;;9.80;99.90;;;;;;4992894;28;20171;-57
2021/12/01 04:26:01;;;;;;;3.03;0.70;;;9.90;99.90;;;;;;4992911;28;20341;-57
2021/12/01 04:28:27;;;;;;;2.93;0.70;;;9.90;99.90;;;;;;4993011;28;20175;-57
2021/12/01 04:30:52;;;;;;;6.87;0.50;;;9.90;99.90;;;;;;4992233;28;20677;-57
2021/12/01 04:33:18;;;;;;;4.20;0.57;;;9.80;99.90;;;;;;4992722;28;20593;-57
2021/12/01 04:35:46;;;;;;;3.20;0.73;;;9.90;99.90;;;;;;4992721;28;20180;-58
2021/12/01 04:38:11;;;;;;;5.50;0.93;;;9.80;99.90;;;;;;4992454;28;20167;-59
2021/12/01 04:40:37;;;;;;;3.87;0.77;;;9.80;99.90;;;;;;4992568;28;20598;-57
2021/12/01 04:43:03;;;;;;;3.00;0.63;;;9.80;99.90;;;;;;4992438;28;20577;-58
2021/12/01 04:45:31;;;;;;;3.67;0.80;;;9.80;99.90;;;;;;4991263;28;20670;-57
2021/12/01 04:47:58;;;;;;;4.57;0.60;;;9.80;99.90;;;;;;4992538;28;20183;-57
2021/12/01 04:50:26;;;;;;;3.47;0.47;;;9.80;99.90;;;;;;4992238;28;20175;-57
2021/12/01 04:52:55;;;;;;;3.37;0.70;;;9.80;99.90;;;;;;4992268;28;20236;-60
2021/12/01 04:55:22;;;;;;;4.43;0.63;;;9.80;99.90;;;;;;4992352;28;20167;-57
2021/12/01 04:57:48;;;;;;;4.10;0.60;;;9.70;99.90;;;;;;5007274;28;20245;-57
2021/12/01 05:00:18;;;;;;;2.40;0.50;;;9.70;99.90;;;;;;4992369;28;20175;-57
2021/12/01 05:02:44;;;;;;;4.57;0.73;;;9.70;99.90;;;;;;4991938;28;20558;-57
2021/12/01 05:05:10;;;;;;;2.07;0.40;;;9.70;99.90;;;;;;4992186;28;20658;-57
2021/12/01 05:07:36;;;;;;;7.93;0.60;;;9.70;99.90;;;;;;4991390;28;20171;-57
2021/12/01 05:10:02;;;;;;;2.07;0.53;;;9.70;99.90;;;;;;4994642;28;20183;-57
2021/12/01 05:12:28;;;;;;;3.10;0.53;;;9.70;99.90;;;;;;4992017;28;20648;-57
2021/12/01 05:14:53;;;;;;;3.93;0.60;;;9.60;99.90;;;;;;4992035;28;20182;-57
2021/12/01 05:17:20;;;;;;;3.07;0.50;;;9.60;99.90;;;;;;4992034;28;20638;-57
2021/12/01 05:19:47;;;;;;;3.87;0.57;;;9.60;99.90;;;;;;4991821;28;20653;-57
2021/12/01 05:22:13;;;;;;;2.70;0.43;;;9.60;99.90;;;;;;4991899;28;20172;-57
2021/12/01 05:24:39;;;;;;;3.60;0.50;;;9.60;99.90;;;;;;4991812;28;20183;-57
2021/12/01 05:27:04;;;;;;;2.43;0.73;;;9.60;99.90;;;;;;4991801;28;20181;-57
2021/12/01 05:29:31;;;;;;;2.90;0.80;;;9.50;99.90;;;;;;4991870;28;20179;-57
2021/12/01 05:31:57;;;;;;;5.90;0.57;;;9.50;99.90;;;;;;4991765;28;20245;-57
2021/12/01 05:34:23;;;;;;;2.67;0.47;;;9.50;99.90;;;;;;4991743;28;20190;-57
2021/12/01 05:36:50;;;;;;;5.00;0.80;;;9.50;99.90;;;;;;4991682;28;20299;-57
2021/12/01 05:39:17;;;;;;;5.23;0.60;;;9.50;99.90;;;;;;4991833;28;20171;-57
2021/12/01 05:41:43;;;;;;;4.07;1.00;;;9.50;99.90;;;;;;4991059;28;20175;-57
2021/12/01 05:44:09;;;;;;;4.03;0.67;;;9.50;99.90;;;;;;4991751;28;20209;-57
2021/12/01 05:46:35;;;;;;;3.43;0.53;;;9.50;99.90;;;;;;4991726;28;20211;-57
2021/12/01 05:49:01;;;;;;;5.80;0.40;;;9.50;99.90;;;;;;4991556;28;20171;-57
2021/12/01 05:51:27;;;;;;;6.20;0.60;;;9.50;99.90;;;;;;4991734;28;20230;-57
2021/12/01 05:53:53;;;;;;;5.23;0.87;;;9.50;99.90;;;;;;5006622;28;20544;-57
2021/12/01 05:56:18;;;;;;;4.80;0.70;;;9.40;99.90;;;;;;4991497;28;20175;-57
2021/12/01 05:58:44;;;;;;;3.27;0.50;;;9.40;99.90;;;;;;4991576;28;20172;-57
2021/12/01 06:01:10;;;;;;;4.30;0.60;;;9.40;99.90;;;;;;4991651;28;20171;-58
2021/12/01 06:03:38;;;;;;;6.07;0.60;;;9.30;99.90;;;;;;4991208;28;20253;-57
2021/12/01 06:06:04;;;;;;;4.47;0.60;;;9.30;99.90;;;;;;4991534;28;20167;-57
2021/12/01 06:08:30;;;;;;;3.90;0.33;;;9.30;99.90;;;;;;4991237;28;20254;-57
2021/12/01 06:10:56;;;;;;;3.47;0.53;;;9.20;99.90;;;;;;4991348;28;20306;-57
2021/12/01 06:13:24;;;;;;;2.30;0.50;;;9.20;99.90;;;;;;4991733;28;20590;-57
2021/12/01 06:15:50;;;;;;;3.73;0.67;;;9.20;99.90;;;;;;4991317;28;20654;-57
2021/12/01 06:18:17;;;;;;;1.67;0.40;;;9.20;99.90;;;;;;4991354;28;20190;-57
2021/12/01 06:20:43;;;;;;;2.40;0.50;;;9.10;99.90;;;;;;4991284;28;20172;-57
2021/12/01 06:23:09;;;;;;;2.33;0.33;;;9.10;99.90;;;;;;4991536;28;20175;-57
2021/12/01 06:25:35;;;;;;;2.87;0.40;;;9.00;99.90;;;;;;4991301;28;20194;-57
2021/12/01 06:28:01;;;;;;;2.20;0.40;;;9.10;99.90;;;;;;4991281;28;20199;-57
2021/12/01 06:30:31;;;;;;;3.23;0.37;;;9.00;99.90;;;;;;4991163;28;20168;-57
2021/12/01 06:32:57;;;;;;;1.80;0.37;;;9.00;99.90;;;;;;4989843;28;20609;-57
2021/12/01 06:35:23;;;;;;;1.47;0.47;;;9.00;99.90;;;;;;4991135;28;20665;-58
2021/12/01 06:37:50;;;;;;;3.77;0.87;;;8.90;99.90;;;;;;4991125;28;20600;-57
2021/12/01 06:40:16;;;;;;;2.00;0.30;;;8.90;99.90;;;;;;4991271;28;20179;-57
2021/12/01 06:42:42;;;;;;;3.90;0.43;;;8.80;99.90;;;;;;4991031;28;20179;-57
2021/12/01 06:45:10;;;;;;;1.80;0.40;;;8.80;99.90;;;;;;4990957;28;20167;-57
2021/12/01 06:47:37;;;;;;;0.93;0.27;;;8.80;99.90;;;;;;4990979;28;20171;-57
2021/12/01 06:50:04;;;;;;;1.60;0.40;;;8.70;99.90;;;;;;4990933;28;20186;-57
2021/12/01 06:52:30;;;;;;;3.87;0.53;;;8.70;99.90;;;;;;4990956;28;20221;-57
2021/12/01 06:54:57;;;;;;;1.07;0.20;;;8.70;99.90;;;;;;4994508;28;20179;-57
2021/12/01 06:57:24;;;;;;;2.30;0.47;;;8.70;99.90;;;;;;4994447;28;20182;-57
2021/12/01 06:59:49;;;;;;;1.27;0.30;;;8.70;99.90;;;;;;4994924;28;20167;-57
2021/12/01 07:02:17;;;;;;;1.53;0.30;;;8.70;99.90;;;;;;4994335;28;20179;-57
2021/12/01 07:04:44;;;;;;;3.23;0.60;;;8.70;99.90;;;;;;4994378;28;20171;-57
2021/12/01 07:07:10;;;;;;;1.17;0.40;;;8.70;99.90;;;;;;4994650;28;20179;-57
2021/12/01 07:09:36;;;;;;;0.90;0.40;;;8.70;99.90;;;;;;4994320;28;20710;-57
2021/12/01 07:12:02;;;;;;;1.73;0.40;;;8.70;99.90;;;;;;4994248;28;20301;-57
2021/12/01 07:14:28;;;;;;;6.37;0.70;;;8.70;99.90;;;;;;4994199;28;20171;-57
2021/12/01 07:16:55;;;;;;;1.50;0.50;;;8.70;99.90;;;;;;4994237;28;20178;-57
2021/12/01 07:19:21;;;;;;;5.37;0.60;;;8.70;99.90;;;;;;4994453;28;20179;-57
2021/12/01 07:21:47;;;;;;;7.77;0.80;;;8.70;99.90;;;;;;4994146;28;20555;-57
2021/12/01 07:24:13;;;;;;;3.63;0.70;;;8.70;99.90;;;;;;4994030;28;20175;-57
2021/12/01 07:26:39;;;;;;;4.80;0.73;;;8.70;99.90;;;;;;4993938;28;20288;-57
2021/12/01 07:29:05;;;;;;;3.27;0.53;;;8.70;99.90;;;;;;4993842;28;20195;-58
2021/12/01 07:31:31;;;;;;;4.67;0.80;;;8.70;99.90;;;;;;4993778;28;20218;-57
2021/12/01 07:33:57;;;;;;;10.97;1.23;;;8.70;99.90;;;;;;4993793;28;20193;-57
2021/12/01 07:36:23;;;;;;;8.30;0.90;;;8.70;99.90;;;;;;4993647;28;20179;-57
2021/12/01 07:38:50;;;;;;;7.47;1.13;;;8.80;99.90;;;;;;4993689;28;20175;-57
2021/12/01 07:41:17;;;;;;;15.70;2.07;;;8.70;99.90;;;;;;4993620;28;20171;-57
2021/12/01 07:43:43;;;;;;;8.13;1.47;;;8.80;99.90;;;;;;4993630;28;20167;-57
2021/12/01 07:46:09;;;;;;;11.03;1.40;;;8.70;99.90;;;;;;4993489;28;20262;-57
2021/12/01 07:48:36;;;;;;;9.67;1.50;;;8.70;99.90;;;;;;4993718;28;20262;-57
2021/12/01 07:51:03;;;;;;;10.77;1.57;;;8.70;99.90;;;;;;4993379;28;20221;-57
2021/12/01 07:53:29;;;;;;;11.77;1.77;;;8.70;99.90;;;;;;5008252;28;20183;-57
2021/12/01 07:55:55;;;;;;;14.33;2.03;;;8.80;99.90;;;;;;4993402;28;20250;-57
2021/12/01 07:58:21;;;;;;;20.30;1.83;;;8.70;99.90;;;;;;4993603;28;20626;-57
2021/12/01 08:00:47;;;;;;;11.27;1.60;;;8.70;99.90;;;;;;4993091;28;20179;-57
2021/12/01 08:03:13;;;;;;;17.77;2.30;;;8.70;99.90;;;;;;4992933;28;20600;-57
2021/12/01 08:05:38;;;;;;;16.43;2.23;;;8.70;99.90;;;;;;4992484;28;20254;-57
2021/12/01 08:08:05;;;;;;;13.63;1.80;;;8.70;99.90;;;;;;4993399;28;20203;-57
2021/12/01 08:10:32;;;;;;;10.60;1.77;;;8.70;99.90;;;;;;4994191;28;20189;-57
2021/12/01 08:13:00;;;;;;;15.63;2.00;;;8.80;99.90;;;;;;4992963;28;20176;-57
2021/12/01 08:15:27;;;;;;;17.60;2.57;;;8.80;99.90;;;;;;4992658;28;20186;-57
2021/12/01 08:17:53;;;;;;;9.27;1.77;;;8.80;99.90;;;;;;4992739;28;20182;-57
2021/12/01 08:20:20;;;;;;;19.50;2.17;;;8.80;99.90;;;;;;4992999;28;20194;-57
2021/12/01 08:22:46;;;;;;;11.93;1.77;;;8.90;99.90;;;;;;4975420;28;20221;-57
2021/12/01 08:25:13;;;;;;;12.27;1.77;;;8.90;99.90;;;;;;4992772;28;20182;-59
2021/12/01 08:27:39;;;;;;;10.37;2.63;;;8.90;99.90;;;;;;4992649;28;20179;-57
2021/12/01 08:30:07;;;;;;;8.23;1.50;;;8.90;99.90;;;;;;4992687;28;20232;-57
2021/12/01 08:32:33;;;;;;;12.33;2.10;;;8.90;99.90;;;;;;4992559;28;20281;-57
2021/12/01 08:34:59;;;;;;;12.67;1.87;;;8.90;99.90;;;;;;4992583;28;20263;-58
2021/12/01 08:37:26;;;;;;;19.27;1.87;;;8.90;99.90;;;;;;4992593;28;20270;-57
2021/12/01 08:39:52;;;;;;;12.03;1.57;;;9.00;99.90;;;;;;4992432;28;20714;-57
2021/12/01 08:42:20;;;;;;;8.93;1.63;;;9.00;99.90;;;;;;4992451;28;20181;-57
2021/12/01 08:44:48;;;;;;;15.17;1.83;;;9.00;99.90;;;;;;4992365;28;20189;-57
2021/12/01 08:47:16;;;;;;;13.53;1.83;;;9.20;99.90;;;;;;4992368;28;20222;-57
2021/12/01 08:49:43;;;;;;;8.57;1.53;;;9.50;99.90;;;;;;4992373;28;20179;-58
2021/12/01 08:52:09;;;;;;;8.50;1.20;;;9.70;99.90;;;;;;4992236;28;20215;-57
2021/12/01 08:54:35;;;;;;;9.57;1.70;;;9.70;99.90;;;;;;4992176;28;20175;-59
2021/12/01 08:57:01;;;;;;;11.60;2.00;;;9.70;99.90;;;;;;4992258;28;20513;-59
2021/12/01 08:59:27;;;;;;;11.00;2.07;;;9.70;99.90;;;;;;4992330;28;20171;-59
2021/12/01 09:01:53;;;;;;;13.50;1.77;;;9.70;99.90;;;;;;4992318;28;20194;-59
2021/12/01 09:04:19;;;;;;;10.73;2.07;;;9.60;99.90;;;;;;4991789;28;20227;-59
2021/12/01 09:06:45;;;;;;;12.27;1.83;;;9.50;99.90;;;;;;4992170;28;20180;-59
2021/12/01 09:09:18;;;;;;;16.53;2.07;;;9.70;99.90;;;;;;4991880;28;20195;-59
2021/12/01 09:11:45;;;;;;;17.57;2.73;;;10.00;99.90;;;;;;4991848;28;20206;-58
2021/12/01 09:14:11;;;;;;;15.60;1.87;;;10.40;99.90;;;;;;4992184;28;20179;-58
2021/12/01 09:16:36;;;;;;;13.33;2.27;;;10.70;99.90;;;;;;4990995;28;20672;-58
2021/12/01 09:19:03;;;;;;;11.57;2.10;;;10.40;99.90;;;;;;4991850;28;20175;-59
2021/12/01 09:21:29;;;;;;;11.93;2.00;;;10.20;99.90;;;;;;4991745;28;20178;-58
2021/12/01 09:23:54;;;;;;;12.67;1.97;;;10.20;99.90;;;;;;4991843;28;20523;-58
2021/12/01 09:26:20;;;;;;;9.43;1.87;;;10.40;99.90;;;;;;4992057;28;20167;-58
2021/12/01 09:28:46;;;;;;;12.80;2.10;;;10.20;99.90;;;;;;4991730;28;20195;-58
2021/12/01 09:31:12;;;;;;;12.63;2.07;;;10.40;99.90;;;;;;4992075;28;20211;-58
2021/12/01 09:33:38;;;;;;;16.07;2.17;;;10.30;99.90;;;;;;4991685;28;20654;-58
2021/12/01 09:36:04;;;;;;;15.70;2.07;;;10.50;99.90;;;;;;4991510;28;20171;-58
2021/12/01 09:38:30;;;;;;;12.80;2.10;;;11.10;99.90;;;;;;4991620;28;20168;-58
2021/12/01 09:40:58;;;;;;;15.53;1.93;;;11.00;99.90;;;;;;5006744;28;20187;-59
2021/12/01 09:43:27;;;;;;;11.77;1.67;;;10.50;99.90;;;;;;4991618;28;20253;-58
2021/12/01 09:45:54;;;;;;;10.70;1.60;;;10.40;99.90;;;;;;4991431;28;20646;-58
2021/12/01 09:48:21;;;;;;;6.83;1.57;;;10.30;99.90;;;;;;4991496;28;20622;-58
2021/12/01 09:50:47;;;;;;;16.70;2.63;;;10.40;99.90;;;;;;4991266;28;20202;-58
2021/12/01 09:53:13;;;;;;;16.23;2.07;;;10.50;99.90;;;;;;4991324;28;20175;-59
2021/12/01 09:55:40;;;;;;;18.90;2.20;;;10.50;99.90;;;;;;4991459;28;20691;-59
2021/12/01 09:58:10;;;;;;;20.20;2.53;;;10.50;99.90;;;;;;5006535;28;20187;-58
2021/12/01 10:00:38;;;;;;;12.07;2.03;;;10.60;99.90;;;;;;4991197;28;20603;-59
2021/12/01 10:03:05;;;;;;;20.77;2.77;;;10.60;99.90;;;;;;4991053;28;20218;-59
2021/12/01 10:05:49;;;;;;;17.40;2.40;;;10.70;99.90;;;;;;4991421;28;20676;-59
2021/12/01 10:08:26;;;;;;;14.53;2.17;;;10.70;99.90;;;;;;4991195;28;20175;-57
2021/12/01 10:10:54;;;;;;;14.33;2.13;;;10.60;99.90;;;;;;4991152;28;20229;-57
2021/12/01 10:13:31;;;;;;;19.33;2.47;;;10.60;99.90;;;;;;4991224;28;20794;-59
2021/12/01 10:16:01;;;;;;;24.73;3.30;;;10.70;99.90;;;;;;4991163;28;20183;-57
2021/12/01 10:18:29;;;;;;;11.90;2.13;;;10.80;99.90;;;;;;4991376;28;20525;-57
2021/12/01 10:21:22;;;;;;;14.73;1.97;;;11.00;99.90;;;;;;4991301;28;20274;-59
2021/12/01 10:23:54;;;;;;;7.70;1.57;;;11.20;99.90;;;;;;4991143;28;20258;-59
2021/12/01 10:26:19;;;;;;;23.17;3.30;;;11.30;99.90;;;;;;4991013;28;20516;-58
2021/12/01 10:28:52;;;;;;;20.03;2.27;;;11.70;99.90;;;;;;4992969;28;20225;-58
2021/12/01 10:31:36;;;;;;;15.97;2.80;;;11.70;99.90;;;;;;4995118;28;20214;-59
2021/12/01 10:34:14;;;;;;;15.50;2.07;;;11.70;99.90;;;;;;4994941;28;20168;-59
2021/12/01 10:36:40;;;;;;;22.07;2.90;;;11.60;99.90;;;;;;4994681;28;20277;-58
2021/12/01 10:39:06;;;;;;;16.10;2.40;;;11.30;99.90;;;;;;4994699;28;20245;-59
2021/12/01 10:41:37;;;;;;;15.40;2.43;;;11.20;99.90;;;;;;4994652;28;20716;-59
2021/12/01 10:44:19;;;;;;;13.10;1.77;;;10.90;99.90;;;;;;4994722;28;20163;-59
2021/12/01 10:46:51;;;;;;;17.03;2.10;;;10.60;99.90;;;;;;4994686;28;20183;-59
2021/12/01 10:49:31;;;;;;;9.17;2.10;;;10.70;99.90;;;;;;4994478;28;20206;-59
2021/12/01 10:51:57;;;;;;;14.57;1.93;;;10.60;99.90;;;;;;4994382;28;20210;-59
2021/12/01 10:54:23;;;;;;;8.43;1.70;;;11.20;99.90;;;;;;4994470;28;20661;-58
2021/12/01 10:57:19;;;;;;;11.07;1.83;;;11.10;99.90;;;;;;4994410;28;20229;-59
2021/12/01 10:59:47;;;;;;;11.30;2.10;;;10.70;99.90;;;;;;4994437;28;20167;-57
2021/12/01 11:02:15;;;;;;;10.30;2.23;;;11.10;99.90;;;;;;4994205;28;20199;-58
2021/12/01 11:04:45;;;;;;;18.50;2.00;;;12.10;99.90;;;;;;4993977;28;20237;-58
2021/12/01 11:07:31;;;;;;;13.97;2.03;;;12.70;99.90;;;;;;4994237;28;20188;-57
2021/12/01 11:10:18;;;;;;;15.90;2.07;;;13.10;99.90;;;;;;4976576;28;20194;-58
2021/12/01 11:12:56;;;;;;;18.63;2.00;;;13.40;99.90;;;;;;4993915;28;20218;-58
2021/12/01 11:15:25;;;;;;;12.18;1.67;;;13.60;99.90;;;;;;4993868;28;20646;-60
2021/12/01 11:17:52;;;;;;;16.77;2.40;;;13.80;99.90;;;;;;4994260;28;20175;-59
2021/12/01 11:20:49;;;;;;;12.15;1.80;;;14.10;99.90;;;;;;4994027;28;20293;-59
2021/12/01 11:23:15;;;;;;;16.95;2.28;;;14.80;99.90;;;;;;4994097;28;20257;-58
2021/12/01 11:25:45;;;;;;;13.77;2.30;;;16.00;99.90;;;;;;4993855;28;20215;-59
2021/12/01 11:28:15;;;;;;;9.07;1.42;;;16.80;99.90;;;;;;4993994;28;20183;-58
2021/12/01 11:30:45;;;;;;;9.68;1.90;;;16.50;99.90;;;;;;4993736;28;20167;-60
2021/12/01 11:33:17;;;;;;;5.40;1.60;;;16.80;99.90;;;;;;4993858;28;20502;-59
2021/12/01 11:35:48;;;;;;;8.77;1.48;;;17.50;99.90;;;;;;5008638;28;20594;-60
2021/12/01 11:38:17;;;;;;;5.55;1.42;;;17.10;99.90;;;;;;4993733;28;20175;-60
2021/12/01 11:40:44;;;;;;;8.05;1.40;;;17.10;99.90;;;;;;4992617;28;20562;-59
2021/12/01 11:43:11;;;;;;;6.07;1.50;;;17.40;99.90;;;;;;4993524;28;20282;-59
2021/12/01 11:45:42;;;;;;;11.00;1.85;;;16.00;99.90;;;;;;4993660;28;20254;-59
2021/12/01 11:48:17;;;;;;;10.10;1.70;;;16.10;99.90;;;;;;4993536;28;20175;-59
2021/12/01 11:51:09;;;;;;;7.10;1.80;;;16.60;99.90;;;;;;4993330;28;20171;-59
2021/12/01 11:53:38;;;;;;;8.30;1.35;;;15.40;99.90;;;;;;4983142;28;20187;-59
2021/12/01 11:56:14;;;;;;;18.60;2.13;;;14.80;99.90;;;;;;4993284;28;20179;-58
2021/12/01 11:58:58;;;;;;;6.88;1.65;;;14.40;99.90;;;;;;4993032;28;20167;-58
2021/12/01 12:01:24;;;;;;;10.55;1.48;;;14.20;99.90;;;;;;4993128;28;20178;-58
2021/12/01 12:04:01;;;;;;;11.95;1.70;;;13.50;99.90;;;;;;4992911;28;20219;-59
2021/12/01 12:06:32;;;;;;;2.80;0.88;;;13.80;99.90;;;;;;4993229;28;20171;-57
2021/12/01 12:09:07;;;;;;;6.80;1.02;;;13.70;99.90;;;;;;4993134;28;20175;-58
2021/12/01 12:11:43;;;;;;;6.75;1.30;;;14.50;99.90;;;;;;4992968;28;20207;-58
2021/12/01 12:14:26;;;;;;;4.90;1.20;;;15.20;99.90;;;;;;4992974;28;20202;-58
2021/12/01 12:17:15;;;;;;;8.35;1.30;;;16.30;99.90;;;;;;4992819;28;20175;-59
2021/12/01 12:19:46;;;;;;;4.70;1.02;;;15.20;99.90;;;;;;4992955;28;20214;-59
2021/12/01 12:22:18;;;;;;;5.97;1.30;;;13.90;99.90;;;;;;4992904;28;20217;-59
2021/12/01 12:24:54;;;;;;;6.30;1.40;;;13.20;99.90;;;;;;4992916;28;20186;-58
2021/12/01 12:27:31;;;;;;;13.10;1.30;;;12.30;99.90;;;;;;4992657;28;20175;-58
2021/12/01 12:29:59;;;;;;;5.72;1.15;;;11.50;99.90;;;;;;4992670;28;20207;-58
2021/12/01 12:32:29;;;;;;;7.18;1.70;;;11.10;99.90;;;;;;4992518;28;20346;-59
2021/12/01 12:34:58;;;;;;;11.43;1.53;;;10.90;99.90;;;;;;4992673;28;20641;-58
2021/12/01 12:37:26;;;;;;;10.30;1.10;;;10.80;99.90;;;;;;4992563;28;20224;-58
2021/12/01 12:39:53;;;;;;;8.30;1.50;;;10.80;99.90;;;;;;4992530;28;20174;-59
2021/12/01 12:42:20;;;;;;;6.03;1.30;;;10.70;99.90;;;;;;4992581;28;20175;-58
2021/12/01 12:44:48;;;;;;;6.27;1.20;;;10.50;99.90;;;;;;4992358;28;20652;-58
2021/12/01 12:47:38;;;;;;;4.90;0.80;;;10.40;99.90;;;;;;4992392;28;20540;-58
2021/12/01 12:50:22;;;;;;;8.03;1.10;;;10.30;99.90;;;;;;4992467;28;20626;-58
2021/12/01 12:52:50;;;;;;;4.27;1.10;;;10.50;99.90;;;;;;4992067;28;20211;-58
2021/12/01 12:55:15;;;;;;;7.23;1.30;;;10.70;99.90;;;;;;4992381;28;20261;-58
2021/12/01 12:58:17;;;;;;;9.67;1.57;;;10.90;99.90;;;;;;4992341;28;20310;-58
2021/12/01 13:00:53;;;;;;;5.80;1.00;;;10.90;99.90;;;;;;4970476;28;20646;-58
2021/12/01 13:03:27;;;;;;;6.13;1.17;;;10.60;99.90;;;;;;4989136;28;20705;-57